Time,TemperatureF,DewpointF,PressureIn,WindDirection,WindDirectionDegrees,WindSpeedMPH,WindSpeedGustMPH,Humidity,HourlyPrecipIn,Conditions,Clouds,dailyrainin,SoftwareType,DateUTC
2013-02-02 00:03:00,19.0,7.0,30.32,WNW,290,8.0,-999.0,57,-99.99,,,-99.99,,2013-02-02 05:03:00,
2013-02-02 00:12:00,19.0,7.0,30.33,West,280,9.0,-999.0,57,-99.99,,,-99.99,,2013-02-02 05:12:00,
2013-02-02 00:22:00,19.0,5.0,30.33,WNW,290,6.0,-999.0,52,-99.99,,,-99.99,,2013-02-02 05:22:00,
2013-02-02 00:33:00,19.0,5.0,30.32,WNW,290,8.0,-999.0,52,-99.99,,,-99.99,,2013-02-02 05:33:00,
2013-02-02 00:41:00,19.0,5.0,30.32,NW,310,8.0,-999.0,52,-99.99,,,-99.99,,2013-02-02 05:41:00,
2013-02-02 00:52:00,19.0,5.0,30.33,WNW,290,6.0,-999.0,52,-99.99,,,-99.99,,2013-02-02 05:52:00,
2013-02-02 01:02:00,19.0,5.0,30.33,WNW,290,6.0,-999.0,52,-99.99,,,-99.99,,2013-02-02 06:02:00,
2013-02-02 01:12:00,19.0,5.0,30.33,WNW,300,7.0,-999.0,52,-99.99,,,-99.99,,2013-02-02 06:12:00,
2013-02-02 01:22:00,19.0,5.0,30.34,WNW,300,5.0,-999.0,52,-99.99,,,-99.99,,2013-02-02 06:22:00,
2013-02-02 01:32:00,19.0,5.0,30.34,WNW,290,7.0,-999.0,52,-99.99,,,-99.99,,2013-02-02 06:32:00,
2013-02-02 01:42:00,19.0,5.0,30.34,WNW,300,5.0,-999.0,52,-99.99,,,-99.99,,2013-02-02 06:42:00,
2013-02-02 01:51:00,18.0,5.0,30.35,West,280,8.0,-999.0,57,-99.99,,,-99.99,,2013-02-02 06:51:00,
2013-02-02 02:02:00,18.0,5.0,30.35,West,280,8.0,-999.0,57,-99.99,,,-99.99,,2013-02-02 07:02:00,
2013-02-02 02:12:00,18.0,5.0,30.35,West,280,6.0,-999.0,57,-99.99,,,-99.99,,2013-02-02 07:12:00,
2013-02-02 02:21:00,18.0,5.0,30.36,WNW,290,7.0,-999.0,57,-99.99,,,-99.99,,2013-02-02 07:21:00,
2013-02-02 02:32:00,18.0,5.0,30.36,West,280,7.0,-999.0,57,-99.99,,,-99.99,,2013-02-02 07:32:00,
2013-02-02 02:42:00,18.0,5.0,30.36,West,280,9.0,-999.0,57,-99.99,,,-99.99,,2013-02-02 07:42:00,
2013-02-02 02:51:00,18.0,5.0,30.36,WNW,300,8.0,-999.0,57,-99.99,,,-99.99,,2013-02-02 07:51:00,
2013-02-02 03:01:00,18.0,5.0,30.36,WNW,300,8.0,-999.0,57,-99.99,,,-99.99,,2013-02-02 08:01:00,
2013-02-02 03:11:00,18.0,5.0,30.36,West,260,5.0,-999.0,57,-99.99,,,-99.99,,2013-02-02 08:11:00,
2013-02-02 03:21:00,18.0,5.0,30.35,WNW,300,3.0,-999.0,57,-99.99,,,-99.99,,2013-02-02 08:21:00,
2013-02-02 03:31:00,18.0,5.0,30.34,NW,310,3.0,-999.0,57,-99.99,,,-99.99,,2013-02-02 08:31:00,
2013-02-02 03:41:00,18.0,5.0,30.34,WNW,300,2.0,-999.0,57,-99.99,,,-99.99,,2013-02-02 08:41:00,
2013-02-02 03:52:00,16.0,5.0,30.34,WNW,300,5.0,-999.0,61,-99.99,,,-99.99,,2013-02-02 08:52:00,
2013-02-02 04:01:00,16.0,5.0,30.34,WNW,300,5.0,-999.0,61,-99.99,,,-99.99,,2013-02-02 09:01:00,
2013-02-02 04:11:00,16.0,5.0,30.34,NW,310,3.0,-999.0,61,-99.99,,,-99.99,,2013-02-02 09:11:00,
2013-02-02 04:22:00,16.0,5.0,30.34,NNW,330,5.0,-999.0,61,-99.99,,,-99.99,,2013-02-02 09:22:00,
2013-02-02 04:31:00,16.0,5.0,30.34,WNW,290,3.0,-999.0,61,-99.99,,,-99.99,,2013-02-02 09:31:00,
2013-02-02 04:42:00,16.0,5.0,30.33,NW,320,3.0,-999.0,61,-99.99,,,-99.99,,2013-02-02 09:42:00,
2013-02-02 04:52:00,16.0,3.0,30.34,NW,310,3.0,-999.0,56,-99.99,,,-99.99,,2013-02-02 09:52:00,
2013-02-02 05:02:00,16.0,3.0,30.34,NW,310,3.0,-999.0,56,-99.99,,,-99.99,,2013-02-02 10:02:00,
2013-02-02 05:11:00,16.0,3.0,30.34,West,270,2.0,-999.0,56,-99.99,,,-99.99,,2013-02-02 10:11:00,
2013-02-02 05:21:00,10.0,5.0,30.34,WSW,240,3.0,-999.0,78,-99.99,,,-99.99,,2013-02-02 10:21:00,
2013-02-02 05:32:00,10.0,5.0,30.34,SW,220,2.0,-999.0,78,-99.99,,,-99.99,,2013-02-02 10:32:00,
2013-02-02 05:42:00,9.0,3.0,30.34,SSW,210,3.0,-999.0,78,-99.99,,,-99.99,,2013-02-02 10:42:00,
2013-02-02 05:52:00,9.0,5.0,30.35,WSW,240,3.0,-999.0,84,-99.99,,,-99.99,,2013-02-02 10:52:00,
2013-02-02 06:02:00,9.0,5.0,30.35,WSW,240,3.0,-999.0,84,-99.99,,,-99.99,,2013-02-02 11:02:00,
2013-02-02 06:11:00,9.0,5.0,30.35,WSW,240,3.0,-999.0,84,-99.99,,,-99.99,,2013-02-02 11:11:00,
2013-02-02 06:21:00,9.0,5.0,30.35,WSW,250,3.0,-999.0,84,-99.99,,,-99.99,,2013-02-02 11:21:00,
2013-02-02 06:32:00,9.0,5.0,30.35,West,260,3.0,-999.0,84,-99.99,,,-99.99,,2013-02-02 11:32:00,
2013-02-02 06:42:00,9.0,5.0,30.36,WSW,250,3.0,-999.0,84,-99.99,,,-99.99,,2013-02-02 11:42:00,
2013-02-02 06:52:00,9.0,5.0,30.36,West,270,5.0,-999.0,84,-99.99,,,-99.99,,2013-02-02 11:52:00,
2013-02-02 07:02:00,9.0,5.0,30.36,West,270,5.0,-999.0,84,-99.99,,,-99.99,,2013-02-02 12:02:00,
2013-02-02 07:11:00,12.0,5.0,30.36,West,280,3.0,-999.0,72,-99.99,,,-99.99,,2013-02-02 12:11:00,
2013-02-02 07:22:00,14.0,5.0,30.37,West,280,6.0,-999.0,66,-99.99,,,-99.99,,2013-02-02 12:22:00,
2013-02-02 07:32:00,14.0,5.0,30.37,West,280,3.0,-999.0,66,-99.99,,,-99.99,,2013-02-02 12:32:00,
2013-02-02 07:42:00,14.0,5.0,30.37,West,280,3.0,-999.0,66,-99.99,,,-99.99,,2013-02-02 12:42:00,
2013-02-02 07:52:00,14.0,5.0,30.37,West,280,3.0,-999.0,66,-99.99,,,-99.99,,2013-02-02 12:52:00,
2013-02-02 08:03:00,14.0,5.0,30.37,West,280,3.0,-999.0,66,-99.99,,,-99.99,,2013-02-02 13:03:00,
2013-02-02 08:11:00,14.0,5.0,30.37,West,270,3.0,-999.0,66,-99.99,,,-99.99,,2013-02-02 13:11:00,
2013-02-02 08:21:00,16.0,7.0,30.37,West,280,5.0,-999.0,67,-99.99,,,-99.99,,2013-02-02 13:21:00,
2013-02-02 08:32:00,18.0,7.0,30.38,WNW,290,6.0,-999.0,62,-99.99,,,-99.99,,2013-02-02 13:32:00,
2013-02-02 08:42:00,18.0,7.0,30.37,WNW,300,7.0,-999.0,62,-99.99,,,-99.99,,2013-02-02 13:42:00,
2013-02-02 08:52:00,19.0,5.0,30.37,NNW,330,6.0,-999.0,52,-99.99,,,-99.99,,2013-02-02 13:52:00,
2013-02-02 09:03:00,19.0,5.0,30.37,NNW,330,6.0,-999.0,52,-99.99,,,-99.99,,2013-02-02 14:03:00,
2013-02-02 09:11:00,21.0,5.0,30.37,NNW,330,7.0,-999.0,48,-99.99,,,-99.99,,2013-02-02 14:11:00,
2013-02-02 09:22:00,23.0,5.0,30.36,West,270,8.0,-999.0,45,-99.99,,,-99.99,,2013-02-02 14:22:00,
2013-02-02 09:33:00,23.0,7.0,30.36,WNW,300,5.0,-999.0,49,-99.99,,,-99.99,,2013-02-02 14:33:00,
2013-02-02 09:42:00,23.0,7.0,30.36,West,270,10.0,-999.0,49,-99.99,,,-99.99,,2013-02-02 14:42:00,
2013-02-02 09:52:00,23.0,9.0,30.36,WSW,250,8.0,-999.0,53,-99.99,,,-99.99,,2013-02-02 14:52:00,
2013-02-02 10:03:00,23.0,9.0,30.36,WSW,250,8.0,-999.0,53,-99.99,,,-99.99,,2013-02-02 15:03:00,
2013-02-02 10:12:00,25.0,9.0,30.35,WNW,290,6.0,-999.0,49,-99.99,,,-99.99,,2013-02-02 15:12:00,
2013-02-02 10:22:00,25.0,9.0,30.34,West,260,12.0,-999.0,49,-99.99,,,-99.99,,2013-02-02 15:22:00,
2013-02-02 10:32:00,25.0,9.0,30.34,WSW,240,14.0,-999.0,49,-99.99,,,-99.99,,2013-02-02 15:32:00,
2013-02-02 10:42:00,25.0,9.0,30.34,WNW,290,8.0,-999.0,49,-99.99,,,-99.99,,2013-02-02 15:42:00,
2013-02-02 10:52:00,25.0,9.0,30.33,WSW,250,12.0,-999.0,49,-99.99,,,-99.99,,2013-02-02 15:52:00,
2013-02-02 11:03:00,25.0,9.0,30.33,WSW,250,12.0,-999.0,49,-99.99,,,-99.99,,2013-02-02 16:03:00,
2013-02-02 11:11:00,27.0,9.0,30.33,West,280,7.0,-999.0,46,-99.99,,,-99.99,,2013-02-02 16:11:00,
2013-02-02 11:22:00,27.0,9.0,30.32,WNW,300,8.0,-999.0,46,-99.99,,,-99.99,,2013-02-02 16:22:00,
2013-02-02 11:32:00,27.0,9.0,30.32,West,270,6.0,-999.0,46,-99.99,,,-99.99,,2013-02-02 16:32:00,
2013-02-02 11:42:00,27.0,9.0,30.31,WSW,250,15.0,-999.0,46,-99.99,,,-99.99,,2013-02-02 16:42:00,
2013-02-02 11:52:00,27.0,10.0,30.31,SW,220,17.0,-999.0,49,-99.99,,,-99.99,,2013-02-02 16:52:00,
2013-02-02 12:03:00,27.0,10.0,30.31,SW,220,17.0,-999.0,49,-99.99,,,-99.99,,2013-02-02 17:03:00,
2013-02-02 12:11:00,27.0,10.0,30.30,WSW,240,10.0,-999.0,49,-99.99,,,-99.99,,2013-02-02 17:11:00,
2013-02-02 12:22:00,27.0,10.0,30.29,West,270,13.0,-999.0,49,-99.99,,,-99.99,,2013-02-02 17:22:00,
2013-02-02 12:32:00,27.0,10.0,30.29,West,270,6.0,16.0,49,-99.99,,,-99.99,,2013-02-02 17:32:00,
2013-02-02 12:42:00,27.0,9.0,30.28,SW,220,10.0,16.0,46,-99.99,,,-99.99,,2013-02-02 17:42:00,
2013-02-02 12:52:00,27.0,9.0,30.27,West,280,7.0,-999.0,46,-99.99,,,-99.99,,2013-02-02 17:52:00,
2013-02-02 13:03:00,27.0,9.0,30.27,West,280,7.0,-999.0,46,-99.99,,,-99.99,,2013-02-02 18:03:00,
2013-02-02 13:12:00,27.0,10.0,30.26,West,270,10.0,16.0,49,-99.99,,,-99.99,,2013-02-02 18:12:00,
2013-02-02 13:22:00,27.0,9.0,30.25,NW,310,14.0,-999.0,46,-99.99,,,-99.99,,2013-02-02 18:22:00,
2013-02-02 13:32:00,27.0,10.0,30.25,WSW,250,12.0,18.0,49,-99.99,,,-99.99,,2013-02-02 18:32:00,
2013-02-02 13:42:00,27.0,10.0,30.25,SW,230,6.0,18.0,49,-99.99,,,-99.99,,2013-02-02 18:42:00,
2013-02-02 13:52:00,27.0,10.0,30.24,West,270,9.0,-999.0,49,-99.99,,,-99.99,,2013-02-02 18:52:00,
2013-02-02 14:02:00,27.0,10.0,30.24,West,270,9.0,-999.0,49,-99.99,,,-99.99,,2013-02-02 19:02:00,
2013-02-02 14:12:00,27.0,10.0,30.23,WSW,250,10.0,-999.0,49,-99.99,,,-99.99,,2013-02-02 19:12:00,
2013-02-02 14:21:00,27.0,10.0,30.22,West,260,10.0,-999.0,49,-99.99,,,-99.99,,2013-02-02 19:21:00,
2013-02-02 14:32:00,27.0,10.0,30.22,WSW,250,9.0,-999.0,49,-99.99,,,-99.99,,2013-02-02 19:32:00,
2013-02-02 14:42:00,28.0,10.0,30.22,SW,220,7.0,-999.0,46,-99.99,,,-99.99,,2013-02-02 19:42:00,
2013-02-02 14:51:00,27.0,10.0,30.21,SW,220,12.0,-999.0,49,-99.99,,,-99.99,,2013-02-02 19:51:00,
2013-02-02 15:02:00,27.0,10.0,30.21,SW,220,12.0,-999.0,49,-99.99,,,-99.99,,2013-02-02 20:02:00,
2013-02-02 15:11:00,27.0,10.0,30.21,SW,230,7.0,-999.0,49,-99.99,,,-99.99,,2013-02-02 20:11:00,
2013-02-02 15:21:00,28.0,12.0,30.20,SW,230,10.0,-999.0,50,-99.99,,,-99.99,,2013-02-02 20:21:00,
2013-02-02 15:32:00,28.0,10.0,30.20,SW,230,5.0,-999.0,46,-99.99,,,-99.99,,2013-02-02 20:32:00,
2013-02-02 15:42:00,28.0,10.0,30.19,WSW,240,9.0,-999.0,46,-99.99,,,-99.99,,2013-02-02 20:42:00,
2013-02-02 15:52:00,28.0,10.0,30.20,WSW,250,3.0,-999.0,46,-99.99,,,-99.99,,2013-02-02 20:52:00,
2013-02-02 16:02:00,28.0,10.0,30.20,WSW,250,3.0,-999.0,46,-99.99,,,-99.99,,2013-02-02 21:02:00,
2013-02-02 16:11:00,27.0,10.0,30.19,SW,230,7.0,-999.0,49,-99.99,,,-99.99,,2013-02-02 21:11:00,
2013-02-02 16:21:00,27.0,10.0,30.18,SW,230,6.0,-999.0,49,-99.99,,,-99.99,,2013-02-02 21:21:00,
2013-02-02 16:32:00,27.0,10.0,30.18,SW,220,3.0,-999.0,49,-99.99,,,-99.99,,2013-02-02 21:32:00,
2013-02-02 16:42:00,27.0,12.0,30.18,SSW,200,3.0,-999.0,54,-99.99,,,-99.99,,2013-02-02 21:42:00,
2013-02-02 16:52:00,27.0,10.0,30.17,SSW,210,6.0,-999.0,49,-99.99,,,-99.99,,2013-02-02 21:52:00,
2013-02-02 17:02:00,27.0,10.0,30.17,SSW,210,6.0,-999.0,49,-99.99,,,-99.99,,2013-02-02 22:02:00,
2013-02-02 17:12:00,28.0,12.0,30.16,South,190,6.0,-999.0,50,-99.99,,,-99.99,,2013-02-02 22:12:00,
2013-02-02 17:21:00,28.0,12.0,30.15,South,180,7.0,-999.0,50,-99.99,,,-99.99,,2013-02-02 22:21:00,
2013-02-02 17:32:00,28.0,12.0,30.15,South,180,7.0,-999.0,50,-99.99,,,-99.99,,2013-02-02 22:32:00,
2013-02-02 17:42:00,28.0,14.0,30.15,SSW,200,6.0,-999.0,54,-99.99,,,-99.99,,2013-02-02 22:42:00,
2013-02-02 17:52:00,28.0,14.0,30.14,SSW,210,5.0,-999.0,54,-99.99,,,-99.99,,2013-02-02 22:52:00,
2013-02-02 18:02:00,28.0,14.0,30.14,SSW,210,5.0,-999.0,54,-99.99,,,-99.99,,2013-02-02 23:02:00,
2013-02-02 18:11:00,28.0,14.0,30.14,South,190,5.0,-999.0,54,-99.99,,,-99.99,,2013-02-02 23:11:00,
2013-02-02 18:21:00,28.0,16.0,30.14,SSW,210,3.0,-999.0,58,-99.99,,,-99.99,,2013-02-02 23:21:00,
2013-02-02 18:32:00,28.0,16.0,30.14,SSW,200,3.0,-999.0,58,-99.99,,,-99.99,,2013-02-02 23:32:00,
2013-02-02 18:42:00,28.0,16.0,30.14,SSW,210,5.0,-999.0,58,-99.99,,,-99.99,,2013-02-02 23:42:00,
2013-02-02 18:52:00,28.0,16.0,30.14,SW,220,6.0,-999.0,58,-99.99,,,-99.99,,2013-02-02 23:52:00,
2013-02-02 19:02:00,28.0,16.0,30.14,SW,220,6.0,-999.0,58,-99.99,,,-99.99,,2013-02-03 00:02:00,
2013-02-02 19:11:00,28.0,16.0,30.14,SSW,210,9.0,-999.0,58,-99.99,,,-99.99,,2013-02-03 00:11:00,
2013-02-02 19:22:00,28.0,14.0,30.12,SSW,200,9.0,-999.0,54,-99.99,,,-99.99,,2013-02-03 00:22:00,
2013-02-02 19:32:00,28.0,14.0,30.12,SSW,210,9.0,-999.0,54,-99.99,,,-99.99,,2013-02-03 00:32:00,
2013-02-02 19:42:00,28.0,14.0,30.11,SSW,210,8.0,-999.0,54,-99.99,,,-99.99,,2013-02-03 00:42:00,
2013-02-02 19:52:00,28.0,16.0,30.11,SW,220,9.0,-999.0,58,-99.99,,,-99.99,,2013-02-03 00:52:00,
2013-02-02 20:02:00,28.0,16.0,30.11,SW,220,9.0,-999.0,58,-99.99,,,-99.99,,2013-02-03 01:02:00,
2013-02-02 20:11:00,28.0,18.0,30.13,WSW,240,12.0,-999.0,63,-99.99,,,-99.99,,2013-02-03 01:11:00,
2013-02-02 20:21:00,28.0,19.0,30.13,SW,230,10.0,-999.0,68,-99.99,,,-99.99,,2013-02-03 01:21:00,
2013-02-02 20:32:00,27.0,23.0,30.13,West,270,9.0,-999.0,86,-99.99,,,-99.99,,2013-02-03 01:32:00,
2013-02-02 20:42:00,27.0,23.0,30.13,WSW,240,8.0,-999.0,86,-99.99,,,-99.99,,2013-02-03 01:42:00,
2013-02-02 20:52:00,27.0,25.0,30.13,WSW,240,6.0,-999.0,92,-99.99,,,-99.99,,2013-02-03 01:52:00,
2013-02-02 21:01:00,27.0,25.0,30.13,WSW,240,6.0,-999.0,92,-99.99,,,-99.99,,2013-02-03 02:01:00,
2013-02-02 21:11:00,27.0,27.0,30.13,WSW,240,7.0,-999.0,100,-99.99,,,-99.99,,2013-02-03 02:11:00,
2013-02-02 21:21:00,27.0,27.0,30.13,SW,220,8.0,-999.0,100,-99.99,,,-99.99,,2013-02-03 02:21:00,
2013-02-02 21:32:00,27.0,27.0,30.13,SW,230,8.0,-999.0,100,-99.99,,,-99.99,,2013-02-03 02:32:00,
2013-02-02 21:42:00,27.0,27.0,30.12,SW,220,7.0,-999.0,100,-99.99,,,-99.99,,2013-02-03 02:42:00,
2013-02-02 21:52:00,27.0,27.0,30.12,SSW,210,6.0,-999.0,100,-99.99,,,-99.99,,2013-02-03 02:52:00,
2013-02-02 22:02:00,27.0,27.0,30.12,SSW,210,6.0,-999.0,100,-99.99,,,-99.99,,2013-02-03 03:02:00,
2013-02-02 22:11:00,27.0,27.0,30.11,SW,220,5.0,-999.0,100,-99.99,,,-99.99,,2013-02-03 03:11:00,
2013-02-02 22:21:00,27.0,27.0,30.10,SSW,210,3.0,-999.0,100,-99.99,,,-99.99,,2013-02-03 03:21:00,
2013-02-02 22:32:00,27.0,27.0,30.10,SSW,200,3.0,-999.0,100,-99.99,,,-99.99,,2013-02-03 03:32:00,
2013-02-02 22:42:00,27.0,27.0,30.09,South,190,3.0,-999.0,100,-99.99,,,-99.99,,2013-02-03 03:42:00,
2013-02-02 22:51:00,27.0,27.0,30.09,South,190,3.0,-999.0,100,-99.99,,,-99.99,,2013-02-03 03:51:00,
2013-02-02 23:01:00,27.0,27.0,30.09,South,190,3.0,-999.0,100,-99.99,,,-99.99,,2013-02-03 04:01:00,
2013-02-02 23:11:00,27.0,27.0,30.08,South,190,2.0,-999.0,100,-99.99,,,-99.99,,2013-02-03 04:11:00,
2013-02-02 23:21:00,27.0,27.0,30.07,South,190,1.0,-999.0,100,-99.99,,,-99.99,,2013-02-03 04:21:00,
2013-02-02 23:32:00,27.0,27.0,30.07,SSW,200,2.0,-999.0,100,-99.99,,,-99.99,,2013-02-03 04:32:00,
2013-02-02 23:42:00,27.0,27.0,30.07,SSW,200,1.0,-999.0,100,-99.99,,,-99.99,,2013-02-03 04:42:00,
2013-02-02 23:52:00,27.0,27.0,30.07,South,190,2.0,-999.0,100,-99.99,,,-99.99,,2013-02-03 04:52:00,